Time,TemperatureF,DewpointF,PressureIn,WindDirection,WindDirectionDegrees,WindSpeedMPH,WindSpeedGustMPH,Humidity,HourlyPrecipIn,Conditions,Clouds,dailyrainin,SoftwareType,DateUTC
2013-01-14 02:48:00,52.3,51.8,29.82,WSW,247,2.7,-999.0,98,-99.99,,,0.08,Acu-Link.com,2013-01-14 07:48:00,
2013-01-14 04:43:00,43.9,43.4,29.90,ENE,67,0.0,-999.0,98,-99.99,,,0.10,Acu-Link.com,2013-01-14 09:43:00,
2013-01-14 04:59:00,43.7,43.2,29.90,NW,315,1.1,-999.0,98,-99.99,,,0.12,Acu-Link.com,2013-01-14 09:59:00,
2013-01-14 05:14:00,43.5,43.0,29.91,NW,315,0.0,-999.0,98,-99.99,,,0.12,Acu-Link.com,2013-01-14 10:14:00,
2013-01-14 05:31:00,43.3,42.8,29.93,WNW,292,0.0,-999.0,98,-99.99,,,0.12,Acu-Link.com,2013-01-14 10:31:00,
2013-01-14 05:49:00,43.0,42.5,29.95,WNW,292,2.7,-999.0,98,-99.99,,,0.12,Acu-Link.com,2013-01-14 10:49:00,
2013-01-14 06:05:00,43.0,42.5,29.96,WNW,292,0.0,-999.0,98,-99.99,,,0.12,Acu-Link.com,2013-01-14 11:05:00,
2013-01-14 06:22:00,43.2,42.7,29.96,West,270,2.7,-999.0,98,-99.99,,,0.12,Acu-Link.com,2013-01-14 11:22:00,
2013-01-14 06:37:00,43.2,42.7,29.99,WNW,292,0.0,-999.0,98,-99.99,,,0.12,Acu-Link.com,2013-01-14 11:37:00,
2013-01-14 06:52:00,43.2,42.7,29.99,West,270,0.0,-999.0,98,-99.99,,,0.12,Acu-Link.com,2013-01-14 11:52:00,
2013-01-14 07:08:00,42.8,42.3,30.01,NW,315,6.8,-999.0,98,-99.99,,,0.12,Acu-Link.com,2013-01-14 12:08:00,
2013-01-14 07:23:00,42.4,41.9,30.01,NNW,337,0.0,-999.0,98,-99.99,,,0.12,Acu-Link.com,2013-01-14 12:23:00,
2013-01-14 07:42:00,42.4,41.9,30.02,West,270,1.1,-999.0,98,-99.99,,,0.12,Acu-Link.com,2013-01-14 12:42:00,
2013-01-14 07:58:00,42.3,41.8,30.02,West,270,3.2,-999.0,98,-99.99,,,0.12,Acu-Link.com,2013-01-14 12:58:00,
2013-01-14 08:13:00,41.9,41.4,30.04,NNW,337,3.2,-999.0,98,-99.99,,,0.12,Acu-Link.com,2013-01-14 13:13:00,
2013-01-14 08:28:00,42.1,41.6,30.04,NNE,22,2.7,-999.0,98,-99.99,,,0.12,Acu-Link.com,2013-01-14 13:28:00,
2013-01-14 08:43:00,42.1,41.6,30.05,WNW,292,2.2,-999.0,98,-99.99,,,0.12,Acu-Link.com,2013-01-14 13:43:00,
2013-01-14 08:59:00,42.1,41.6,30.06,NW,315,0.0,-999.0,98,-99.99,,,0.12,Acu-Link.com,2013-01-14 13:59:00,
2013-01-14 09:14:00,42.3,41.8,30.06,NW,315,4.2,-999.0,98,-99.99,,,0.12,Acu-Link.com,2013-01-14 14:14:00,
2013-01-14 09:29:00,42.6,42.1,30.06,WNW,292,3.2,-999.0,98,-99.99,,,0.12,Acu-Link.com,2013-01-14 14:29:00,
2013-01-14 09:44:00,42.6,42.1,30.08,WNW,292,2.7,-999.0,98,-99.99,,,0.12,Acu-Link.com,2013-01-14 14:44:00,
2013-01-14 09:59:00,43.0,42.5,30.08,WSW,247,2.7,-999.0,98,-99.99,,,0.12,Acu-Link.com,2013-01-14 14:59:00,
2013-01-14 10:15:00,42.6,42.1,30.08,WNW,292,4.7,-999.0,98,-99.99,,,0.12,Acu-Link.com,2013-01-14 15:15:00,
2013-01-14 10:30:00,43.0,42.5,30.08,WNW,292,4.2,-999.0,98,-99.99,,,0.12,Acu-Link.com,2013-01-14 15:30:00,
2013-01-14 10:45:00,42.8,42.3,30.07,NW,315,6.3,-999.0,98,-99.99,,,0.12,Acu-Link.com,2013-01-14 15:45:00,
2013-01-14 11:00:00,42.8,42.3,30.07,West,270,4.2,-999.0,98,-99.99,,,0.12,Acu-Link.com,2013-01-14 16:00:00,
2013-01-14 11:15:00,43.7,43.2,30.08,WSW,247,5.8,-999.0,98,-99.99,,,0.12,Acu-Link.com,2013-01-14 16:15:00,
2013-01-14 11:31:00,43.0,42.5,30.06,NW,315,4.7,-999.0,98,-99.99,,,0.12,Acu-Link.com,2013-01-14 16:31:00,
2013-01-14 11:46:00,43.7,43.2,30.06,SSW,202,1.7,-999.0,98,-99.99,,,0.12,Acu-Link.com,2013-01-14 16:46:00,
2013-01-14 12:01:00,43.0,42.5,30.07,NW,315,3.2,-999.0,98,-99.99,,,0.12,Acu-Link.com,2013-01-14 17:01:00,
2013-01-14 12:16:00,43.2,42.7,30.06,NNW,337,0.0,-999.0,98,-99.99,,,0.12,Acu-Link.com,2013-01-14 17:16:00,
2013-01-14 12:31:00,42.8,42.3,30.05,NW,315,4.2,-999.0,98,-99.99,,,0.12,Acu-Link.com,2013-01-14 17:31:00,
2013-01-14 12:46:00,42.8,42.3,30.05,NW,315,4.7,-999.0,98,-99.99,,,0.12,Acu-Link.com,2013-01-14 17:46:00,
2013-01-14 13:01:00,44.8,44.3,30.05,WNW,292,1.1,-999.0,98,-99.99,,,0.12,Acu-Link.com,2013-01-14 18:01:00,
2013-01-14 13:16:00,45.1,44.6,30.04,WNW,292,2.7,-999.0,98,-99.99,,,0.12,Acu-Link.com,2013-01-14 18:16:00,
2013-01-14 13:31:00,44.2,43.7,30.04,NW,315,3.7,-999.0,98,-99.99,,,0.12,Acu-Link.com,2013-01-14 18:31:00,
2013-01-14 13:47:00,44.2,43.7,30.03,WNW,292,5.3,-999.0,98,-99.99,,,0.12,Acu-Link.com,2013-01-14 18:47:00,
2013-01-14 14:02:00,44.8,44.3,30.02,East,90,4.2,-999.0,98,-99.99,,,0.12,Acu-Link.com,2013-01-14 19:02:00,
2013-01-14 14:17:00,43.7,43.2,30.00,NNE,22,2.2,-999.0,98,-99.99,,,0.12,Acu-Link.com,2013-01-14 19:17:00,
2013-01-14 14:33:00,43.5,43.0,30.00,West,270,1.1,-999.0,98,-99.99,,,0.12,Acu-Link.com,2013-01-14 19:33:00,
2013-01-14 14:57:00,43.7,43.2,30.00,West,270,3.7,-999.0,98,-99.99,,,0.12,Acu-Link.com,2013-01-14 19:57:00,
2013-01-14 15:13:00,43.5,43.0,30.02,ESE,112,0.0,-999.0,98,-99.99,,,0.12,Acu-Link.com,2013-01-14 20:13:00,
2013-01-14 15:28:00,42.8,42.3,30.02,SSW,202,0.0,-999.0,98,-99.99,,,0.12,Acu-Link.com,2013-01-14 20:28:00,
2013-01-14 15:43:00,42.8,42.3,30.02,NW,315,0.0,-999.0,98,-99.99,,,0.12,Acu-Link.com,2013-01-14 20:43:00,
2013-01-14 15:58:00,42.3,41.8,30.05,WNW,292,0.0,-999.0,98,-99.99,,,0.12,Acu-Link.com,2013-01-14 20:58:00,
2013-01-14 16:13:00,42.1,41.6,30.05,SSW,202,0.0,-999.0,98,-99.99,,,0.12,Acu-Link.com,2013-01-14 21:13:00,
2013-01-14 16:28:00,41.5,41.0,30.05,ESE,112,2.7,-999.0,98,-99.99,,,0.12,Acu-Link.com,2013-01-14 21:28:00,
2013-01-14 16:44:00,41.4,40.9,30.07,NW,315,2.7,-999.0,98,-99.99,,,0.12,Acu-Link.com,2013-01-14 21:44:00,
2013-01-14 16:59:00,41.0,40.5,30.08,West,270,4.7,-999.0,98,-99.99,,,0.12,Acu-Link.com,2013-01-14 21:59:00,
2013-01-14 17:18:00,40.6,40.1,30.09,ENE,67,2.7,-999.0,98,-99.99,,,0.12,Acu-Link.com,2013-01-14 22:18:00,
2013-01-14 17:33:00,40.3,39.8,30.13,NNW,337,2.7,-999.0,98,-99.99,,,0.12,Acu-Link.com,2013-01-14 22:33:00,
2013-01-14 17:48:00,39.9,39.4,30.11,West,270,0.0,-999.0,98,-99.99,,,0.12,Acu-Link.com,2013-01-14 22:48:00,
2013-01-14 18:03:00,39.7,39.2,30.13,West,270,2.7,-999.0,98,-99.99,,,0.12,Acu-Link.com,2013-01-14 23:03:00,
2013-01-14 18:19:00,39.4,38.9,30.12,NW,315,0.0,-999.0,98,-99.99,,,0.12,Acu-Link.com,2013-01-14 23:19:00,
2013-01-14 18:34:00,39.4,38.9,30.11,NW,315,0.0,-999.0,98,-99.99,,,0.12,Acu-Link.com,2013-01-14 23:34:00,
2013-01-14 18:49:00,39.0,38.5,30.11,WNW,292,0.0,-999.0,98,-99.99,,,0.12,Acu-Link.com,2013-01-14 23:49:00,
2013-01-14 19:04:00,38.8,38.3,30.13,WSW,247,0.0,-999.0,98,-99.99,,,0.12,Acu-Link.com,2013-01-15 00:04:00,
2013-01-14 19:21:00,38.7,38.2,30.14,WNW,292,3.2,-999.0,98,-99.99,,,0.12,Acu-Link.com,2013-01-15 00:21:00,
2013-01-14 19:51:00,38.3,37.8,30.14,WNW,292,1.1,-999.0,98,-99.99,,,0.12,Acu-Link.com,2013-01-15 00:51:00,
2013-01-14 20:06:00,38.1,37.6,30.13,NW,315,0.0,-999.0,98,-99.99,,,0.12,Acu-Link.com,2013-01-15 01:06:00,
2013-01-14 20:22:00,37.9,37.4,30.13,ESE,112,0.0,-999.0,98,-99.99,,,0.12,Acu-Link.com,2013-01-15 01:22:00,
2013-01-14 20:37:00,37.9,37.4,30.12,WNW,292,0.0,-999.0,98,-99.99,,,0.12,Acu-Link.com,2013-01-15 01:37:00,
2013-01-14 20:52:00,37.8,37.3,30.11,East,90,2.7,-999.0,98,-99.99,,,0.12,Acu-Link.com,2013-01-15 01:52:00,
2013-01-14 21:09:00,37.6,37.1,30.09,East,90,0.0,-999.0,98,-99.99,,,0.12,Acu-Link.com,2013-01-15 02:09:00,
2013-01-14 21:34:00,37.4,36.9,30.08,WNW,292,0.0,-999.0,98,-99.99,,,0.12,Acu-Link.com,2013-01-15 02:34:00,
2013-01-14 21:52:00,37.0,36.5,30.07,WNW,292,0.0,-999.0,98,-99.99,,,0.12,Acu-Link.com,2013-01-15 02:52:00,
2013-01-14 22:47:00,36.9,36.4,30.09,NW,315,4.2,-999.0,98,-99.99,,,0.12,Acu-Link.com,2013-01-15 03:47:00,
2013-01-14 23:06:00,36.3,35.8,30.07,East,90,5.8,-999.0,98,-99.99,,,0.12,Acu-Link.com,2013-01-15 04:06:00,
2013-01-14 23:23:00,35.2,34.7,30.07,West,270,6.3,-999.0,98,-99.99,,,0.12,Acu-Link.com,2013-01-15 04:23:00,
2013-01-14 23:59:00,35.1,34.6,30.04,ESE,112,1.1,-999.0,98,-99.99,,,0.12,Acu-Link.com,2013-01-15 04:59:00,